Terminal Aerodrome Forecast
Issued by NWS Corpus Christi, TX

Current Version | Previous Version | Text Only | Print | Product List | Glossary On
Versions: 1 2 3 4 5 6 7 8 9 10 11 12 13
000
FTUS44 KCRP 010500
TAFCRP
TAF
KCRP 010540Z 0106/0206 17015KT P6SM SCT020 BKN100
      TEMPO 0110/0113 BKN015 OVC100
     FM011500 16005KT P6SM VCSH BKN030 OVC100 PROB30 0115/0118 3SM
      TSRA OVC025CB
     FM012000 14010KT P6SM VCTS SCT040CB BKN090
     FM020200 12007KT P6SM FEW050=

USA.gov is the U.S. government's official web portal to all federal, state and local government web resources and services.